Time;durP1;ratioP1;P1;durP2;ratioP2;P2;SDS_P1;SDS_P2;PMS_P1;PMS_P2;Temp;Humidity;BMP_temperature;BMP_pressure;BME280_temperature;BME280_humidity;BME280_pressure;Samples;Min_cycle;Max_cycle;Signal;HPM_P1;HPM_P2
2021/06/17 00:00:32;;;;;;;11.27;8.90;;;;;;;25.93;55.39;99106.44;2044435;28;20263;-66
2021/06/17 00:01:32;;;;;;;;;;;;;;;25.88;55.44;99098.81;2042770;28;20015;-67
2021/06/17 00:02:33;;;;;;;10.27;8.65;;;;;;;25.92;55.03;99098.38;2044897;28;20037;-67
2021/06/17 00:03:33;;;;;;;8.55;7.65;;;;;;;25.91;55.29;99100.28;2039434;28;20054;-66
2021/06/17 00:04:34;;;;;;;11.53;8.37;;;;;;;25.92;55.41;99110.28;2043746;28;20537;-66
2021/06/17 00:05:35;;;;;;;9.87;8.23;;;;;;;25.92;55.30;99110.28;2038038;28;20059;-67
2021/06/17 00:06:36;;;;;;;9.60;8.38;;;;;;;25.92;55.10;99104.78;2040197;28;20026;-66
2021/06/17 00:07:38;;;;;;;8.77;7.43;;;;;;;25.93;55.32;99105.63;2044964;28;20030;-66
2021/06/17 00:08:38;;;;;;;10.27;8.25;;;;;;;25.93;55.33;99100.94;2043865;28;20038;-67
2021/06/17 00:09:39;;;;;;;10.97;8.57;;;;;;;25.95;55.24;99106.25;2043670;28;20023;-67
2021/06/17 00:10:45;;;;;;;8.10;7.30;;;;;;;25.94;55.29;99096.25;2044441;28;20363;-67
2021/06/17 00:11:46;;;;;;;9.30;8.30;;;;;;;25.92;55.01;99099.25;2042879;28;20027;-67
2021/06/17 00:12:46;;;;;;;9.30;8.40;;;;;;;25.93;55.50;99100.09;2042341;28;20025;-66
2021/06/17 00:13:47;;;;;;;9.90;8.67;;;;;;;25.93;55.41;99100.94;2040046;28;20565;-67
2021/06/17 00:14:47;;;;;;;8.90;8.00;;;;;;;25.93;55.14;99105.63;2038100;28;21607;-67
2021/06/17 00:15:50;;;;;;;9.03;8.13;;;;;;;25.93;55.41;99105.63;2044280;28;20022;-66
2021/06/17 00:16:50;;;;;;;13.20;8.90;;;;;;;25.93;55.22;99114.75;2043880;28;20023;-66
2021/06/17 00:17:52;;;;;;;10.03;8.37;;;;;;;25.94;55.23;99123.84;2044347;28;20054;-66
2021/06/17 00:18:53;;;;;;;9.90;8.10;;;;;;;25.93;55.10;99142.34;2037826;28;20033;-66
2021/06/17 00:19:53;;;;;;;10.23;8.10;;;;;;;25.93;55.53;99156.16;2043767;28;20027;-67
2021/06/17 00:20:54;;;;;;;10.67;8.17;;;;;;;25.92;55.27;99165.50;2039859;28;20438;-67
2021/06/17 00:21:55;;;;;;;9.67;8.77;;;;;;;25.92;55.26;99179.31;2038737;28;20034;-67
2021/06/17 00:22:57;;;;;;;9.40;8.45;;;;;;;25.93;55.25;99196.72;2043805;28;20137;-66
2021/06/17 00:23:57;;;;;;;9.77;7.95;;;;;;;25.92;55.22;99206.94;2041577;28;20532;-66
2021/06/17 00:24:58;;;;;;;8.73;7.83;;;;;;;25.93;55.16;99213.28;2042638;28;21934;-66
2021/06/17 00:25:58;;;;;;;9.23;7.40;;;;;;;25.91;55.10;99221.78;2043998;28;20033;-67
2021/06/17 00:26:59;;;;;;;9.00;6.83;;;;;;;25.90;54.88;99222.00;2045767;28;20628;-66
2021/06/17 00:28:00;;;;;;;8.03;6.90;;;;;;;25.90;54.72;99222.00;2044345;28;20081;-66
2021/06/17 00:29:00;;;;;;;8.55;6.78;;;;;;;25.89;54.70;99215.63;2045010;28;20459;-67
2021/06/17 00:30:01;;;;;;;7.10;6.40;;;;;;;25.88;54.41;99222.22;2043471;28;20031;-66
2021/06/17 00:31:02;;;;;;;7.27;6.57;;;;;;;25.88;54.53;99217.53;2042552;28;20026;-66
2021/06/17 00:32:03;;;;;;;7.70;6.90;;;;;;;25.89;54.48;99218.38;2042944;28;20023;-66
2021/06/17 00:33:04;;;;;;;7.47;6.43;;;;;;;25.89;54.21;99215.63;2041282;28;20019;-67
2021/06/17 00:34:08;;;;;;;7.88;7.05;;;;;;;25.90;54.21;99216.50;2044823;28;20764;-67
2021/06/17 00:35:10;;;;;;;8.15;6.38;;;;;;;25.89;54.30;99215.63;2039774;28;20102;-67
2021/06/17 00:36:10;;;;;;;;;;;;;;;25.86;54.02;99210.53;2044265;28;20172;-67
2021/06/17 00:37:11;;;;;;;7.20;6.50;;;;;;;25.87;54.42;99212.22;2041932;28;19918;-67
2021/06/17 00:38:12;;;;;;;8.43;7.47;;;;;;;25.88;54.13;99219.47;2042225;28;20098;-66
2021/06/17 00:39:12;;;;;;;8.30;7.50;;;;;;;25.88;54.34;99220.28;2052792;28;20100;-66
2021/06/17 00:40:14;;;;;;;8.43;6.77;;;;;;;25.89;54.07;99221.13;2046175;28;20487;-67
2021/06/17 00:41:15;;;;;;;7.88;7.05;;;;;;;25.89;54.42;99226.66;2041446;28;20027;-66
2021/06/17 00:42:17;;;;;;;8.57;7.43;;;;;;;25.89;54.62;99232.19;2041872;28;20029;-66
2021/06/17 00:43:17;;;;;;;8.43;6.75;;;;;;;25.89;54.31;99232.19;2040093;28;20045;-66
2021/06/17 00:44:18;;;;;;;8.67;7.30;;;;;;;25.90;54.16;99230.28;2043848;28;20022;-66
2021/06/17 00:45:25;;;;;;;7.97;7.07;;;;;;;25.90;54.31;99233.91;2044676;28;20058;-67
2021/06/17 00:46:26;;;;;;;8.45;7.65;;;;;;;25.91;54.26;99232.81;2042161;28;20034;-67
2021/06/17 00:47:27;;;;;;;7.33;6.63;;;;;;;25.91;54.17;99229.22;2044414;28;20118;-66
2021/06/17 00:48:27;;;;;;;7.90;6.43;;;;;;;25.90;54.51;99238.56;2031356;28;20039;-66
2021/06/17 00:49:28;;;;;;;8.47;6.80;;;;;;;25.90;54.25;99238.56;2034559;28;20071;-67
2021/06/17 00:50:31;;;;;;;9.67;7.83;;;;;;;25.90;54.28;99247.69;2027732;29;20495;-66
2021/06/17 00:51:32;;;;;;;8.18;7.22;;;;;;;25.89;54.33;99265.31;2029555;29;20046;-67
2021/06/17 00:52:33;;;;;;;11.68;7.00;;;;;;;25.89;54.31;99259.78;2026825;29;20103;-66
2021/06/17 00:53:34;;;;;;;7.23;6.53;;;;;;;25.89;54.44;99254.28;2034852;28;20076;-66
2021/06/17 00:54:35;;;;;;;7.72;6.90;;;;;;;25.88;54.46;99258.94;2040492;28;20037;-66
2021/06/17 00:55:38;;;;;;;7.13;6.43;;;;;;;25.88;54.47;99252.59;2044527;28;20628;-67
2021/06/17 00:56:39;;;;;;;9.10;7.65;;;;;;;25.89;54.18;99254.28;2043226;28;20026;-66
2021/06/17 00:57:40;;;;;;;8.17;7.23;;;;;;;25.89;54.21;99248.75;2044742;28;20030;-66
2021/06/17 00:58:40;;;;;;;9.93;7.10;;;;;;;25.89;54.51;99248.75;2042108;28;20450;-67
2021/06/17 00:59:41;;;;;;;7.33;6.60;;;;;;;25.90;54.33;99255.97;2044675;28;20029;-67
2021/06/17 01:00:42;;;;;;;8.03;6.53;;;;;;;25.90;54.33;99255.97;2041644;28;20041;-66
2021/06/17 01:01:43;;;;;;;10.60;7.72;;;;;;;25.90;54.29;99269.78;2044870;28;20019;-66
2021/06/17 01:02:44;;;;;;;7.37;6.60;;;;;;;25.90;54.41;99277.22;2044345;28;20510;-66
2021/06/17 01:03:45;;;;;;;8.05;6.25;;;;;;;25.89;54.20;99284.63;2041522;28;20062;-67
2021/06/17 01:04:45;;;;;;;7.73;6.47;;;;;;;25.90;54.42;99283.59;2050846;28;20042;-67
2021/06/17 01:05:46;;;;;;;9.27;6.87;;;;;;;25.89;54.44;99284.63;2043921;28;20970;-66
2021/06/17 01:06:48;;;;;;;7.43;6.53;;;;;;;25.90;54.32;99288.28;2039878;28;20064;-66
2021/06/17 01:07:57;;;;;;;;;;;;;;;25.86;54.20;99287.84;2044602;28;20270;-67
2021/06/17 01:09:45;;;;;;;9.10;6.75;;;;;;;25.84;54.38;99293.53;2040076;28;19929;-67
2021/06/17 01:10:57;;;;;;;7.72;6.75;;;;;;;25.84;54.40;99295.44;2031660;28;20054;-66
2021/06/17 01:12:17;;;;;;;7.30;6.57;;;;;;;25.85;54.35;99294.41;2039879;28;20030;-67
2021/06/17 01:13:21;;;;;;;7.20;6.50;;;;;;;25.85;54.62;99291.63;2043604;28;20050;-67
2021/06/17 01:14:37;;;;;;;6.93;6.22;;;;;;;25.85;54.61;99294.41;2041791;28;20031;-66
2021/06/17 01:15:44;;;;;;;7.22;6.53;;;;;;;25.85;54.51;99299.91;2046808;28;20030;-67
2021/06/17 01:16:49;;;;;;;7.00;6.30;;;;;;;25.86;54.46;99304.41;2045426;28;20482;-67
2021/06/17 01:18:00;;;;;;;7.88;5.95;;;;;;;25.85;54.69;99308.22;2036766;29;20395;-67
2021/06/17 01:19:13;;;;;;;7.90;7.10;;;;;;;25.85;54.34;99311.84;2029839;29;20023;-66
2021/06/17 01:20:25;;;;;;;7.63;6.85;;;;;;;25.85;54.42;99316.50;2036029;28;20141;-66
2021/06/17 01:21:37;;;;;;;7.65;6.95;;;;;;;25.83;54.71;99310.31;2036363;29;20046;-67
2021/06/17 01:22:52;;;;;;;7.32;6.55;;;;;;;25.82;54.66;99314.13;2041746;28;20632;-66
2021/06/17 01:24:11;;;;;;;6.75;6.10;;;;;;;25.82;54.62;99301.19;2042003;28;20407;-67
2021/06/17 01:25:38;;;;;;;7.25;6.55;;;;;;;25.82;54.72;99308.59;2035525;28;20039;-66
2021/06/17 01:27:20;;;;;;;7.35;6.53;;;;;;;25.80;54.39;99299.72;2006695;29;20048;-66
2021/06/17 01:28:22;;;;;;;7.82;6.72;;;;;;;25.82;54.83;99303.09;2033437;29;20038;-67
2021/06/17 01:29:24;;;;;;;;;;;;;;;25.80;54.62;99302.47;2040516;28;20803;-66
2021/06/17 01:30:26;;;;;;;7.28;6.43;;;;;;;25.80;54.61;99305.25;2044037;28;19914;-66
2021/06/17 01:31:32;;;;;;;8.10;6.70;;;;;;;25.80;54.32;99302.47;2040876;28;20046;-66
2021/06/17 01:32:34;;;;;;;7.53;6.75;;;;;;;25.80;54.47;99305.25;2041721;28;20027;-67
2021/06/17 01:33:36;;;;;;;;;;;;;;;25.78;54.39;99301.84;2041891;28;20041;-66
2021/06/17 01:34:39;;;;;;;8.43;6.63;;;;;;;25.78;54.48;99297.16;2036530;28;19906;-66
2021/06/17 01:35:44;;;;;;;7.00;6.28;;;;;;;25.79;54.42;99300.75;2041609;28;20561;-66
2021/06/17 01:36:49;;;;;;;7.25;6.55;;;;;;;25.78;54.25;99296.31;2040669;28;20066;-67
2021/06/17 01:37:55;;;;;;;6.97;6.28;;;;;;;25.79;54.45;99309.03;2041459;28;20094;-67
2021/06/17 01:38:58;;;;;;;7.03;6.32;;;;;;;25.79;54.45;99292.47;2042964;28;20114;-67
2021/06/17 01:40:00;;;;;;;6.55;5.85;;;;;;;25.80;54.58;99308.00;2042034;28;20023;-66
2021/06/17 01:41:02;;;;;;;6.97;6.30;;;;;;;25.80;54.53;99306.09;2041907;28;20592;-66
2021/06/17 01:42:05;;;;;;;8.02;6.22;;;;;;;25.80;54.20;99305.25;2043936;28;20470;-66
2021/06/17 01:43:07;;;;;;;7.90;6.55;;;;;;;25.81;54.25;99316.03;2039703;28;20030;-67
2021/06/17 01:44:08;;;;;;;;;;;;;;;25.77;54.21;99306.50;2043251;28;20028;-67
2021/06/17 01:45:10;;;;;;;6.85;6.05;;;;;;;25.78;54.49;99310.97;2037255;28;19974;-66
2021/06/17 01:46:12;;;;;;;6.80;5.93;;;;;;;25.77;54.25;99308.41;2043326;28;20157;-66
2021/06/17 01:47:14;;;;;;;6.30;5.65;;;;;;;25.78;54.25;99313.72;2043900;28;20536;-66
2021/06/17 01:48:15;;;;;;;7.32;6.50;;;;;;;25.80;54.17;99305.25;2042323;28;20081;-67
2021/06/17 01:49:17;;;;;;;7.38;6.43;;;;;;;25.79;54.30;99298.00;2030687;28;20027;-66
2021/06/17 01:50:18;;;;;;;;;;;;;;;25.77;54.41;99308.41;2027435;29;20042;-66
2021/06/17 01:51:23;;;;;;;7.07;6.40;;;;;;;25.77;54.32;99303.75;2038633;28;19921;-67
2021/06/17 01:52:25;;;;;;;6.75;6.05;;;;;;;25.80;54.57;99305.25;2043906;28;20058;-66
2021/06/17 01:53:26;;;;;;;6.80;6.10;;;;;;;25.80;54.37;99306.09;2040692;28;20046;-67
2021/06/17 01:54:30;;;;;;;7.25;6.30;;;;;;;25.81;54.38;99309.69;2042602;28;20078;-66
2021/06/17 01:55:32;;;;;;;6.82;6.13;;;;;;;25.80;54.04;99306.09;2038402;28;20029;-66
2021/06/17 01:56:34;;;;;;;7.55;6.80;;;;;;;25.81;54.09;99313.28;2037467;28;20731;-67
2021/06/17 01:57:37;;;;;;;6.90;6.07;;;;;;;25.81;54.22;99312.44;2035672;29;20118;-67
2021/06/17 01:58:38;;;;;;;8.10;6.97;;;;;;;25.80;54.41;99317.13;2041068;28;20059;-67
2021/06/17 01:59:40;;;;;;;7.17;6.37;;;;;;;25.81;54.56;99309.69;2043532;28;20089;-66
2021/06/17 02:00:45;;;;;;;7.07;5.55;;;;;;;25.80;54.31;99311.59;2051817;28;20077;-66
2021/06/17 02:01:48;;;;;;;6.57;5.78;;;;;;;25.80;54.39;99308.84;2045618;28;20776;-66
2021/06/17 02:02:50;;;;;;;6.13;5.45;;;;;;;25.81;54.51;99312.44;2043824;28;20057;-66
2021/06/17 02:03:51;;;;;;;5.97;5.38;;;;;;;25.80;54.35;99303.31;2042238;28;20010;-66
2021/06/17 02:04:52;;;;;;;6.82;6.13;;;;;;;25.80;54.39;99308.84;2046777;28;20715;-66
2021/06/17 02:05:53;;;;;;;7.97;6.40;;;;;;;25.81;54.60;99312.44;2035069;29;20034;-66
2021/06/17 02:06:55;;;;;;;6.70;5.95;;;;;;;25.82;54.49;99309.47;2034013;28;20042;-67
2021/06/17 02:07:58;;;;;;;6.63;5.93;;;;;;;25.82;54.59;99308.59;2044050;28;20030;-66
2021/06/17 02:09:00;;;;;;;6.97;6.13;;;;;;;25.81;54.57;99317.97;2041390;28;20044;-66
2021/06/17 02:10:01;;;;;;;6.35;5.75;;;;;;;25.82;54.46;99314.13;2040505;28;20018;-66
2021/06/17 02:11:02;;;;;;;6.25;5.65;;;;;;;25.82;54.56;99323.28;2043234;28;20109;-66
2021/06/17 02:12:03;;;;;;;8.17;6.87;;;;;;;25.81;54.49;99321.56;2040568;28;20030;-66
2021/06/17 02:13:05;;;;;;;6.93;6.23;;;;;;;25.81;54.35;99324.31;2040969;28;20035;-66
2021/06/17 02:14:09;;;;;;;6.72;5.75;;;;;;;25.82;54.33;99315.00;2040777;28;20029;-67
2021/06/17 02:15:10;;;;;;;7.47;6.03;;;;;;;25.83;54.58;99316.69;2035925;28;20054;-67
2021/06/17 02:16:12;;;;;;;7.70;6.30;;;;;;;25.82;54.37;99314.13;2041716;28;20030;-66
2021/06/17 02:17:14;;;;;;;7.90;5.90;;;;;;;25.82;54.65;99305.84;2044937;28;20033;-67
2021/06/17 02:18:20;;;;;;;6.25;5.53;;;;;;;25.81;54.64;99307.75;2042685;28;20577;-67
2021/06/17 02:19:23;;;;;;;6.85;5.40;;;;;;;25.81;54.63;99306.91;2041534;28;20065;-67
2021/06/17 02:20:24;;;;;;;8.75;6.53;;;;;;;25.83;54.73;99310.31;2043700;28;20498;-66
2021/06/17 02:21:32;;;;;;;6.35;5.63;;;;;;;25.81;54.83;99313.28;2041050;28;20230;-66
2021/06/17 02:22:35;;;;;;;6.72;5.90;;;;;;;25.81;54.79;99307.75;2041680;28;20019;-66
2021/06/17 02:23:37;;;;;;;7.03;6.32;;;;;;;25.82;54.71;99308.59;2039386;28;21482;-67
2021/06/17 02:24:40;;;;;;;6.38;5.78;;;;;;;25.81;54.72;99313.28;2040919;28;20091;-66
2021/06/17 02:25:42;;;;;;;6.63;6.03;;;;;;;25.82;54.91;99311.38;2040198;28;20498;-66
2021/06/17 02:26:44;;;;;;;6.90;6.15;;;;;;;25.82;54.81;99308.59;2034272;28;20106;-67
2021/06/17 02:27:51;;;;;;;7.88;6.10;;;;;;;25.81;54.72;99306.91;2037361;28;20081;-67
2021/06/17 02:28:54;;;;;;;7.13;6.13;;;;;;;25.81;54.96;99306.91;2040172;28;20033;-66
2021/06/17 02:30:00;;;;;;;6.38;5.65;;;;;;;25.82;54.82;99305.84;2041404;28;20026;-66
2021/06/17 02:31:08;;;;;;;6.60;5.97;;;;;;;25.80;54.75;99306.09;2041427;28;20473;-66
2021/06/17 02:32:12;;;;;;;5.72;5.22;;;;;;;25.81;54.87;99312.44;2041014;28;20154;-67
2021/06/17 02:33:17;;;;;;;6.38;5.75;;;;;;;25.81;54.86;99312.44;2042395;28;20188;-66
2021/06/17 02:34:17;;;;;;;7.43;6.07;;;;;;;25.81;54.98;99315.22;2041496;28;20053;-66
2021/06/17 02:35:24;;;;;;;6.87;6.20;;;;;;;25.80;55.07;99310.75;2043791;28;20035;-67
2021/06/17 02:36:28;;;;;;;6.15;5.55;;;;;;;25.79;54.77;99314.56;2046430;28;20378;-67
2021/06/17 02:37:30;;;;;;;9.50;6.25;;;;;;;25.80;54.67;99310.75;2045181;28;20097;-66
2021/06/17 02:38:39;;;;;;;6.88;6.22;;;;;;;25.80;55.08;99321.81;2041747;28;20053;-66
2021/06/17 02:39:41;;;;;;;6.55;5.82;;;;;;;25.79;55.08;99314.56;2041164;28;20039;-67
2021/06/17 02:40:45;;;;;;;7.07;6.38;;;;;;;25.81;54.74;99320.72;2042706;28;20021;-67
2021/06/17 02:41:50;;;;;;;6.72;6.07;;;;;;;25.80;55.11;99321.81;2042939;28;20050;-67
2021/06/17 02:42:52;;;;;;;7.13;6.03;;;;;;;25.79;55.01;99320.94;2043701;28;20659;-66
2021/06/17 02:43:56;;;;;;;7.13;6.40;;;;;;;25.81;55.19;99323.50;2049068;28;20046;-66
2021/06/17 02:44:58;;;;;;;6.88;6.18;;;;;;;25.80;55.14;99319.03;2043404;28;20058;-66
2021/06/17 02:45:58;;;;;;;6.53;5.82;;;;;;;25.81;54.84;99329.00;2041031;28;20019;-67
2021/06/17 02:46:59;;;;;;;6.87;5.80;;;;;;;25.81;54.88;99334.53;2047603;28;20033;-66
2021/06/17 02:47:59;;;;;;;6.80;6.20;;;;;;;25.80;54.92;99339.22;2043447;28;20050;-66
2021/06/17 02:48:59;;;;;;;6.40;5.80;;;;;;;25.80;54.92;99343.88;2040150;28;20030;-66
2021/06/17 02:50:00;;;;;;;7.37;6.60;;;;;;;25.81;55.25;99351.09;2043334;28;20406;-66
2021/06/17 02:51:01;;;;;;;7.07;6.37;;;;;;;25.81;54.89;99351.09;2034251;28;20182;-66
2021/06/17 02:52:02;;;;;;;5.57;5.07;;;;;;;25.81;54.86;99351.09;2034126;28;20027;-66
2021/06/17 02:53:02;;;;;;;7.07;6.37;;;;;;;25.82;55.15;99350.00;2040696;28;20035;-66
2021/06/17 02:54:03;;;;;;;6.60;5.90;;;;;;;25.81;54.86;99345.56;2043566;28;20023;-67
2021/06/17 02:55:04;;;;;;;7.73;5.90;;;;;;;25.80;55.10;99349.41;2051252;28;20114;-67
2021/06/17 02:56:12;;;;;;;7.22;6.53;;;;;;;25.79;55.17;99350.44;2045891;28;20023;-66
2021/06/17 02:57:18;;;;;;;8.95;5.90;;;;;;;25.80;55.33;99357.69;2041750;28;20750;-66
2021/06/17 02:58:57;;;;;;;6.68;5.95;;;;;;;25.78;55.16;99365.31;2042844;28;20927;-66
2021/06/17 03:00:16;;;;;;;6.30;5.28;;;;;;;25.77;55.25;99360.84;2016953;29;20024;-67
2021/06/17 03:01:35;;;;;;;7.18;5.88;;;;;;;25.77;55.13;99366.38;2040664;28;20030;-66
2021/06/17 03:03:07;;;;;;;6.43;5.55;;;;;;;25.76;55.22;99371.03;2042757;28;20033;-66
2021/06/17 03:04:16;;;;;;;6.18;5.57;;;;;;;25.76;55.24;99375.72;2041928;28;20031;-66
2021/06/17 03:05:34;;;;;;;6.55;5.95;;;;;;;25.75;55.53;99377.66;2051508;28;20109;-66
2021/06/17 03:06:39;;;;;;;6.50;5.90;;;;;;;25.75;55.36;99374.00;2039937;28;20017;-66
2021/06/17 03:08:17;;;;;;;6.22;5.63;;;;;;;25.75;55.51;99374.00;2044934;28;20023;-66
2021/06/17 03:09:34;;;;;;;7.80;5.55;;;;;;;25.73;55.12;99376.16;2046085;28;20050;-66
2021/06/17 03:10:35;;;;;;;7.40;5.90;;;;;;;25.74;55.19;99370.41;2043993;28;20646;-66
2021/06/17 03:11:37;;;;;;;6.20;5.63;;;;;;;25.75;55.41;99372.13;2041537;28;20293;-66
2021/06/17 03:12:42;;;;;;;7.72;5.90;;;;;;;25.75;55.10;99368.47;2042601;28;20039;-66
2021/06/17 03:13:47;;;;;;;6.10;5.50;;;;;;;25.76;55.55;99370.19;2049881;28;20038;-66
2021/06/17 03:14:49;;;;;;;5.88;5.28;;;;;;;25.76;55.18;99359.16;2042953;28;20126;-66
2021/06/17 03:15:50;;;;;;;6.75;5.93;;;;;;;25.77;55.17;99349.81;2042902;28;20026;-66
2021/06/17 03:16:58;;;;;;;6.15;5.65;;;;;;;25.76;55.56;99342.59;2043344;28;20118;-66
2021/06/17 03:18:01;;;;;;;7.75;5.75;;;;;;;25.76;55.47;99334.31;2043491;28;20026;-66
2021/06/17 03:19:03;;;;;;;7.78;6.97;;;;;;;25.76;55.36;99329.63;2045937;28;20085;-66
2021/06/17 03:20:05;;;;;;;;;;;;;;;25.73;55.33;99320.94;2046102;28;20027;-66
2021/06/17 03:21:07;;;;;;;7.30;5.72;;;;;;;25.74;55.23;99317.13;2042816;28;19910;-66
2021/06/17 03:22:10;;;;;;;;;;;;;;;25.70;55.44;99319.47;2042008;28;20560;-66
2021/06/17 03:23:13;;;;;;;;;;;;;;;25.67;55.58;99323.50;2046246;28;20560;-66
2021/06/17 03:24:15;;;;;;;;;;;;;;;25.66;55.55;99321.78;2038945;28;19918;-66
2021/06/17 03:25:20;;;;;;;6.20;5.47;;;;;;;25.69;55.43;99330.69;2041150;28;20310;-66
2021/06/17 03:26:23;;;;;;;6.57;5.88;;;;;;;25.69;55.46;99325.19;2036453;28;20122;-66
2021/06/17 03:27:25;;;;;;;7.30;5.70;;;;;;;25.70;55.64;99313.06;2042318;28;20029;-66
2021/06/17 03:28:27;;;;;;;7.97;6.60;;;;;;;25.72;55.67;99305.44;2046248;28;20107;-66
2021/06/17 03:29:37;;;;;;;6.05;5.45;;;;;;;25.71;55.46;99287.19;2042608;28;20034;-66
2021/06/17 03:30:41;;;;;;;6.65;5.78;;;;;;;25.71;55.47;99289.94;2040828;28;20042;-66
2021/06/17 03:31:42;;;;;;;6.28;5.68;;;;;;;25.71;55.48;99293.53;2046647;28;20026;-66
2021/06/17 03:32:44;;;;;;;6.27;5.67;;;;;;;25.72;55.54;99294.38;2043022;28;20122;-66
2021/06/17 03:33:46;;;;;;;7.05;6.38;;;;;;;25.72;55.69;99298.00;2042671;28;20636;-66
2021/06/17 03:34:48;;;;;;;6.22;5.63;;;;;;;25.73;55.64;99294.19;2043673;28;20014;-66
2021/06/17 03:35:51;;;;;;;6.97;6.35;;;;;;;25.73;55.62;99298.88;2045506;28;20043;-66
2021/06/17 03:36:52;;;;;;;6.40;5.75;;;;;;;25.73;55.50;99288.66;2047904;28;20157;-67
2021/06/17 03:37:53;;;;;;;7.20;5.88;;;;;;;25.74;55.31;99289.50;2050474;28;20140;-68
2021/06/17 03:38:54;;;;;;;6.43;5.70;;;;;;;25.75;55.38;99291.19;2048746;28;20039;-66
2021/06/17 03:39:57;;;;;;;6.80;6.10;;;;;;;25.73;55.62;99293.34;2051122;28;20030;-66
2021/06/17 03:40:59;;;;;;;6.28;5.68;;;;;;;25.73;55.47;99296.94;2055576;28;20052;-66
2021/06/17 03:42:01;;;;;;;;;;;;;;;25.71;55.40;99309.25;2050961;28;20437;-66
2021/06/17 03:43:03;;;;;;;6.63;5.40;;;;;;;25.72;55.50;99320.06;2051042;28;19960;-66
2021/06/17 03:44:04;;;;;;;6.25;5.65;;;;;;;25.72;55.43;99308.19;2049417;28;20361;-67
2021/06/17 03:45:06;;;;;;;6.43;5.70;;;;;;;25.73;55.43;99310.75;2051242;28;20030;-66
2021/06/17 03:46:09;;;;;;;7.55;5.97;;;;;;;25.74;55.52;99314.34;2054607;28;20480;-66
2021/06/17 03:47:11;;;;;;;6.32;5.38;;;;;;;25.74;55.63;99319.88;2049447;28;20022;-66
2021/06/17 03:48:14;;;;;;;5.93;5.32;;;;;;;25.74;55.35;99325.41;2049162;28;20027;-66
2021/06/17 03:49:15;;;;;;;6.93;5.88;;;;;;;25.75;55.44;99335.34;2049192;28;20026;-67
2021/06/17 03:50:18;;;;;;;6.47;5.13;;;;;;;25.75;55.44;99335.34;2043162;28;20030;-67
2021/06/17 03:51:18;;;;;;;6.57;5.85;;;;;;;25.74;55.52;99337.28;2045093;28;20035;-66
2021/06/17 03:52:20;;;;;;;6.17;5.57;;;;;;;25.74;55.37;99339.19;2050956;28;20026;-66
2021/06/17 03:53:21;;;;;;;5.53;5.03;;;;;;;25.75;55.56;99346.41;2050817;28;20026;-66
2021/06/17 03:54:25;;;;;;;6.95;5.68;;;;;;;25.75;55.47;99349.16;2053357;28;20539;-66
2021/06/17 03:55:27;;;;;;;5.60;5.10;;;;;;;25.74;55.55;99344.72;2049291;28;20108;-66
2021/06/17 03:56:28;;;;;;;7.10;5.90;;;;;;;25.74;55.61;99348.31;2052880;28;20464;-66
2021/06/17 03:57:30;;;;;;;6.05;5.47;;;;;;;25.75;55.51;99347.28;2050258;28;20105;-66
2021/06/17 03:58:31;;;;;;;6.57;5.95;;;;;;;25.75;55.47;99358.31;2050087;28;20425;-66
2021/06/17 03:59:40;;;;;;;9.05;6.35;;;;;;;25.74;55.54;99359.34;2049009;28;20026;-66
2021/06/17 04:00:42;;;;;;;6.22;5.18;;;;;;;25.75;55.46;99357.44;2049021;28;20018;-66
2021/06/17 04:01:43;;;;;;;6.05;5.55;;;;;;;25.75;55.68;99360.19;2049355;28;20022;-66
2021/06/17 04:02:44;;;;;;;6.03;5.50;;;;;;;25.73;55.40;99352.16;2045666;28;20045;-66
2021/06/17 04:03:46;;;;;;;6.05;5.45;;;;;;;25.74;55.48;99350.25;2041745;28;20018;-66
2021/06/17 04:04:46;;;;;;;;;;;;;;;25.70;55.77;99355.34;2048419;28;20464;-66
2021/06/17 04:05:48;;;;;;;7.40;5.47;;;;;;;25.71;55.52;99357.03;2050293;28;19917;-66
2021/06/17 04:06:53;;;;;;;6.05;5.40;;;;;;;25.72;55.85;99355.13;2050022;28;20762;-66
2021/06/17 04:08:00;;;;;;;6.07;5.47;;;;;;;25.71;55.72;99361.72;2051626;28;20493;-66
2021/06/17 04:09:03;;;;;;;7.13;6.13;;;;;;;25.72;55.50;99358.72;2050936;28;20030;-66
2021/06/17 04:10:04;;;;;;;6.85;5.80;;;;;;;25.72;55.76;99353.19;2049307;28;20034;-66
2021/06/17 04:11:07;;;;;;;;;;;;;;;25.67;55.53;99345.56;2050512;28;20026;-66
2021/06/17 04:12:10;;;;;;;7.05;6.45;;;;;;;25.70;55.90;99354.47;2047631;28;19918;-66
2021/06/17 04:13:13;;;;;;;6.07;5.57;;;;;;;25.70;55.51;99352.59;2049538;28;20048;-66
2021/06/17 04:14:14;;;;;;;6.65;5.70;;;;;;;25.70;55.89;99348.94;2042940;28;21248;-66
2021/06/17 04:15:16;;;;;;;5.82;5.32;;;;;;;25.70;55.88;99346.19;2049010;28;20037;-66
2021/06/17 04:16:22;;;;;;;5.68;5.18;;;;;;;25.71;55.92;99350.66;2057060;28;21152;-66
2021/06/17 04:17:28;;;;;;;6.30;5.70;;;;;;;25.70;55.81;99348.94;2049835;28;20555;-66
2021/06/17 04:18:31;;;;;;;5.72;5.10;;;;;;;25.70;55.82;99346.19;2051112;28;20494;-66
2021/06/17 04:19:35;;;;;;;6.40;5.65;;;;;;;25.70;55.67;99338.78;2050846;28;20387;-66
2021/06/17 04:20:40;;;;;;;5.93;5.43;;;;;;;25.71;55.55;99334.94;2034667;28;20023;-66
2021/06/17 04:21:41;;;;;;;6.28;5.65;;;;;;;25.71;55.79;99334.94;2044388;28;20386;-66
2021/06/17 04:22:47;;;;;;;5.90;5.30;;;;;;;25.70;55.44;99337.91;2049870;28;20049;-66
2021/06/17 04:23:52;;;;;;;5.80;5.20;;;;;;;25.70;55.48;99332.38;2054875;28;20038;-66
2021/06/17 04:25:01;;;;;;;6.35;5.75;;;;;;;25.70;55.55;99332.38;2056012;28;20049;-66
2021/06/17 04:26:02;;;;;;;6.10;5.50;;;;;;;25.71;55.79;99328.59;2050223;28;20052;-66
2021/06/17 04:27:03;;;;;;;6.38;5.28;;;;;;;25.70;55.60;99322.22;2054145;28;20026;-66
2021/06/17 04:28:05;;;;;;;5.80;5.30;;;;;;;25.69;55.49;99314.16;2051427;28;20587;-66
2021/06/17 04:29:05;;;;;;;6.40;5.80;;;;;;;25.69;55.64;99308.63;2045978;28;20057;-66
2021/06/17 04:30:07;;;;;;;6.20;5.60;;;;;;;25.70;55.51;99313.94;2050695;28;20041;-66
2021/06/17 04:31:08;;;;;;;5.32;4.82;;;;;;;25.71;55.52;99314.78;2049595;28;20026;-66
2021/06/17 04:32:10;;;;;;;6.18;5.57;;;;;;;25.72;55.64;99319.22;2050784;28;20042;-66
2021/06/17 04:33:14;;;;;;;6.47;5.63;;;;;;;25.72;55.70;99322.00;2050109;28;20104;-66
2021/06/17 04:34:15;;;;;;;7.30;5.40;;;;;;;25.72;55.56;99316.47;2052011;28;20449;-66
2021/06/17 04:35:18;;;;;;;5.82;5.32;;;;;;;25.70;55.46;99313.94;2051228;28;20473;-66
2021/06/17 04:36:19;;;;;;;6.40;5.72;;;;;;;25.71;55.43;99317.53;2044605;28;20030;-66
2021/06/17 04:37:26;;;;;;;6.37;5.53;;;;;;;25.71;55.32;99321.16;2049883;28;20047;-66
2021/06/17 04:38:27;;;;;;;5.72;5.22;;;;;;;25.71;55.54;99323.91;2049331;28;20022;-66
2021/06/17 04:39:28;;;;;;;5.65;5.15;;;;;;;25.72;55.72;99316.47;2051819;28;20120;-66
2021/06/17 04:40:29;;;;;;;6.30;5.70;;;;;;;25.71;55.44;99314.78;2051803;28;20553;-66
2021/06/17 04:41:30;;;;;;;6.10;5.50;;;;;;;25.70;55.49;99304.78;2044568;28;20030;-66
2021/06/17 04:42:32;;;;;;;7.77;5.60;;;;;;;25.71;55.29;99309.25;2053626;28;20050;-66
2021/06/17 04:43:35;;;;;;;6.45;5.78;;;;;;;25.71;55.36;99317.53;2045332;28;20023;-66
2021/06/17 04:44:39;;;;;;;5.53;5.03;;;;;;;25.69;55.67;99326.03;2047598;28;20026;-66
2021/06/17 04:45:41;;;;;;;6.53;5.90;;;;;;;25.70;55.47;99311.19;2055780;28;20022;-66
2021/06/17 04:46:45;;;;;;;6.00;5.28;;;;;;;25.71;55.46;99312.03;2045093;28;20106;-66
2021/06/17 04:47:49;;;;;;;6.18;5.60;;;;;;;25.70;55.60;99313.06;2051928;28;20114;-66
2021/06/17 04:48:52;;;;;;;6.15;5.30;;;;;;;25.70;55.67;99310.31;2054966;28;20119;-69
2021/06/17 04:49:53;;;;;;;6.00;5.40;;;;;;;25.69;55.57;99316.91;2050363;28;20033;-66
2021/06/17 04:50:55;;;;;;;6.30;5.70;;;;;;;25.70;55.87;99318.59;2051335;28;20021;-66
2021/06/17 04:51:56;;;;;;;;;;;;;;;25.66;55.72;99320.94;2052430;28;20026;-67
2021/06/17 04:52:56;;;;;;;6.82;5.10;;;;;;;25.67;55.62;99322.63;2043211;28;19918;-67
2021/06/17 04:53:57;;;;;;;5.73;5.20;;;;;;;25.67;55.88;99326.25;2039054;28;20081;-67
2021/06/17 04:54:57;;;;;;;6.77;5.70;;;;;;;25.68;55.80;99329.84;2049553;28;20089;-67
2021/06/17 04:55:58;;;;;;;5.37;4.87;;;;;;;25.69;55.53;99327.94;2059002;28;20030;-66
2021/06/17 04:56:58;;;;;;;5.60;5.10;;;;;;;25.67;55.74;99331.78;2050701;28;20041;-66
2021/06/17 04:57:59;;;;;;;6.53;5.67;;;;;;;25.69;55.79;99330.69;2050795;28;20026;-66
2021/06/17 04:59:00;;;;;;;5.27;4.77;;;;;;;25.68;55.72;99318.81;2042578;28;20074;-66
2021/06/17 05:00:00;;;;;;;6.63;5.30;;;;;;;25.67;55.45;99317.97;2040828;28;20026;-66
2021/06/17 05:01:05;;;;;;;6.00;5.43;;;;;;;25.68;55.37;99310.53;2050111;28;20716;-66